Time;durP1;ratioP1;P1;durP2;ratioP2;P2;SDS_P1;SDS_P2;PMS_P1;PMS_P2;Temp;Humidity;BMP_temperature;BMP_pressure;BME280_temperature;BME280_humidity;BME280_pressure;Samples;Min_cycle;Max_cycle;Signal;HPM_P1;HPM_P2
2021/03/06 00:01:17;;;;;;;8.33;7.37;;;;;;;0.64;63.20;94859.40;1752859;81;21365;-51
2021/03/06 00:03:47;;;;;;;8.60;6.70;;;;;;;0.72;64.02;94868.52;1752757;80;21138;-51
2021/03/06 00:06:15;;;;;;;17.70;9.35;;;;;;;0.87;63.86;94862.56;1752867;81;21154;-51
2021/03/06 00:08:44;;;;;;;16.17;9.08;;;;;;;1.00;62.92;94869.94;1752840;81;21059;-52
2021/03/06 00:11:12;;;;;;;14.28;9.00;;;;;;;1.10;62.79;94871.91;1752741;80;21059;-51
2021/03/06 00:13:41;;;;;;;16.05;10.82;;;;;;;1.09;62.94;94871.72;1752870;81;21292;-50
2021/03/06 00:16:09;;;;;;;20.23;12.73;;;;;;;1.09;63.46;94875.78;1752818;80;21087;-50
2021/03/06 00:18:38;;;;;;;19.27;11.57;;;;;;;1.19;63.80;94880.47;1752959;80;21587;-52
2021/03/06 00:21:06;;;;;;;25.82;17.00;;;;;;;1.25;63.33;94884.90;1752885;80;21162;-51
2021/03/06 00:23:36;;;;;;;17.67;12.55;;;;;;;1.22;63.71;94876.98;1750770;81;21555;-51
2021/03/06 00:26:05;;;;;;;17.07;11.35;;;;;;;1.24;63.62;94866.53;1752906;81;21146;-51
2021/03/06 00:28:34;;;;;;;17.35;10.75;;;;;;;1.14;63.74;94873.29;1752870;81;21496;-51
2021/03/06 00:31:02;;;;;;;17.73;11.83;;;;;;;0.99;64.01;94873.81;1752943;81;21505;-51
2021/03/06 00:33:31;;;;;;;25.32;13.13;;;;;;;1.00;63.97;94875.36;1752856;81;21063;-51
2021/03/06 00:35:59;;;;;;;13.55;9.58;;;;;;;1.04;64.03;94871.31;1752884;81;21047;-51
2021/03/06 00:38:28;;;;;;;16.02;10.23;;;;;;;1.04;63.74;94864.55;1752886;81;21186;-51
2021/03/06 00:40:58;;;;;;;40.75;21.85;;;;;;;1.04;63.32;94868.05;1752872;80;21614;-51
2021/03/06 00:43:26;;;;;;;23.02;13.03;;;;;;;1.01;63.37;94867.45;1752826;81;21122;-51
2021/03/06 00:45:54;;;;;;;22.52;13.43;;;;;;;0.94;63.41;94873.44;1752865;80;21169;-51
2021/03/06 00:48:23;;;;;;;24.57;14.78;;;;;;;0.90;63.00;94868.00;1752949;81;21067;-51
2021/03/06 00:50:53;;;;;;;22.65;13.30;;;;;;;0.86;62.62;94871.28;1753022;80;21363;-51
2021/03/06 00:53:22;;;;;;;18.95;12.40;;;;;;;0.84;62.77;94883.08;1752976;80;21090;-51
2021/03/06 00:55:51;;;;;;;16.90;12.55;;;;;;;0.84;63.45;94890.41;1753077;80;21087;-51
2021/03/06 00:58:19;;;;;;;34.90;20.92;;;;;;;0.87;63.51;94880.95;1752994;81;21213;-51
2021/03/06 01:00:48;;;;;;;44.90;28.47;;;;;;;0.83;63.31;94879.37;1753001;81;21161;-51
2021/03/06 01:03:17;;;;;;;109.03;78.57;;;;;;;0.70;63.25;94891.14;1753001;80;21351;-51
2021/03/06 01:05:46;;;;;;;24.95;18.10;;;;;;;0.74;63.41;94886.50;1752947;81;21147;-52
2021/03/06 01:08:14;;;;;;;24.32;14.63;;;;;;;0.84;63.17;94893.91;1752975;81;21602;-50
2021/03/06 01:10:44;;;;;;;16.67;12.40;;;;;;;0.94;62.88;94891.03;1755795;80;21139;-52
2021/03/06 01:13:12;;;;;;;63.80;46.60;;;;;;;0.87;62.77;94886.93;1761706;80;21058;-52
2021/03/06 01:15:41;;;;;;;28.20;16.37;;;;;;;0.88;63.08;94885.77;1761573;80;21362;-51
2021/03/06 01:18:09;;;;;;;25.88;16.55;;;;;;;0.85;62.78;94879.20;1761537;81;21102;-50
2021/03/06 01:20:39;;;;;;;29.87;18.05;;;;;;;0.67;62.64;94880.28;1761662;80;21062;-51
2021/03/06 01:23:07;;;;;;;29.10;17.55;;;;;;;0.60;63.01;94885.68;1761543;80;21122;-52
2021/03/06 01:25:35;;;;;;;29.37;16.25;;;;;;;0.57;63.06;94895.33;1761617;81;21126;-52
2021/03/06 01:28:04;;;;;;;25.17;14.30;;;;;;;0.51;63.20;94891.44;1761572;81;21374;-50
2021/03/06 01:30:33;;;;;;;25.75;16.27;;;;;;;0.38;63.80;94886.74;1761534;80;21083;-51
2021/03/06 01:33:01;;;;;;;18.65;11.90;;;;;;;0.44;63.83;94890.03;1761682;80;21495;-52
2021/03/06 01:35:30;;;;;;;17.12;10.68;;;;;;;0.57;63.43;94891.27;1761639;80;21079;-52
2021/03/06 01:37:58;;;;;;;19.85;10.68;;;;;;;0.56;62.67;94888.95;1761692;80;21503;-50
2021/03/06 01:40:35;;;;;;;15.53;10.68;;;;;;;0.43;62.82;94890.43;1761563;81;21456;-50
2021/03/06 01:43:08;;;;;;;18.98;11.20;;;;;;;0.38;63.05;94894.27;1761531;80;21066;-51
2021/03/06 01:45:37;;;;;;;20.55;12.33;;;;;;;0.33;63.43;94897.91;1761538;81;21138;-50
2021/03/06 01:48:06;;;;;;;18.67;12.15;;;;;;;0.43;63.37;94900.66;1761570;80;21174;-51
2021/03/06 01:50:37;;;;;;;18.57;11.48;;;;;;;0.56;63.07;94901.89;1761588;81;21170;-51
2021/03/06 01:53:07;;;;;;;25.77;15.70;;;;;;;0.55;62.59;94903.05;1761606;81;21195;-51
2021/03/06 01:55:38;;;;;;;30.75;18.73;;;;;;;0.45;62.74;94906.47;1761509;81;21122;-50
2021/03/06 01:58:06;;;;;;;20.88;12.60;;;;;;;0.35;63.04;94911.82;1761574;80;21158;-51
2021/03/06 02:00:35;;;;;;;18.00;12.15;;;;;;;0.26;63.17;94908.70;1761512;81;21208;-50
2021/03/06 02:03:04;;;;;;;15.00;9.83;;;;;;;0.10;63.69;94908.99;1761533;81;21070;-51
2021/03/06 02:05:32;;;;;;;14.98;8.55;;;;;;;0.03;64.07;94906.22;1761574;80;22226;-50
2021/03/06 02:08:01;;;;;;;9.53;7.97;;;;;;;0.05;64.27;94901.21;1761479;81;21075;-50
2021/03/06 02:10:37;;;;;;;12.73;9.30;;;;;;;0.05;64.33;94907.97;1761422;80;21098;-51
2021/03/06 02:13:45;;;;;;;7.78;6.97;;;;;;;0.13;64.42;94913.64;1761540;80;21154;-51
2021/03/06 02:16:33;;;;;;;11.85;10.40;;;;;;;0.25;64.02;94916.61;1761565;81;21510;-51
2021/03/06 02:19:42;;;;;;;13.15;9.73;;;;;;;0.18;64.04;94915.98;1761589;80;21138;-50
2021/03/06 02:22:48;;;;;;;12.45;10.38;;;;;;;0.17;63.92;94915.00;1761599;81;21471;-51
2021/03/06 02:25:40;;;;;;;12.45;9.85;;;;;;;0.00;63.73;94915.09;1760271;81;21102;-51
2021/03/06 02:28:14;;;;;;;13.93;9.35;;;;;;;0.03;63.84;94914.33;1760997;80;21167;-51
2021/03/06 02:30:42;;;;;;;9.55;7.90;;;;;;;0.13;63.71;94917.70;1761652;81;21071;-52
2021/03/06 02:33:12;;;;;;;11.18;7.42;;;;;;;0.21;63.67;94923.94;1761552;80;21478;-51
2021/03/06 02:35:42;;;;;;;11.05;7.03;;;;;;;0.22;64.01;94930.30;1761523;80;21071;-51
2021/03/06 02:38:11;;;;;;;12.55;7.35;;;;;;;0.33;63.52;94935.22;1761510;81;21066;-52
2021/03/06 02:40:40;;;;;;;19.05;11.22;;;;;;;0.35;63.58;94938.88;1761529;81;21070;-51
2021/03/06 02:43:09;;;;;;;27.22;18.95;;;;;;;0.47;63.67;94935.87;1736386;81;21475;-52
2021/03/06 02:45:38;;;;;;;24.70;15.63;;;;;;;0.54;63.54;94944.80;1761552;80;21253;-51
2021/03/06 02:48:08;;;;;;;36.13;23.30;;;;;;;0.60;63.08;94943.28;1761530;80;21145;-51
2021/03/06 02:50:36;;;;;;;56.23;30.15;;;;;;;0.53;63.23;94955.44;1761495;81;21118;-50
2021/03/06 02:53:05;;;;;;;37.28;25.37;;;;;;;0.48;63.41;94947.68;1761507;81;21170;-51
2021/03/06 02:55:36;;;;;;;31.85;21.17;;;;;;;0.45;63.21;94951.11;1760674;80;21166;-51
2021/03/06 02:58:44;;;;;;;32.48;20.30;;;;;;;0.32;63.52;94955.31;1761513;80;21361;-50
2021/03/06 03:01:36;;;;;;;27.95;15.83;;;;;;;0.19;63.65;94953.30;1738570;81;21153;-51
2021/03/06 03:04:10;;;;;;;36.20;20.60;;;;;;;0.09;64.03;94950.71;1733723;82;21180;-51
2021/03/06 03:06:38;;;;;;;31.48;19.90;;;;;;;0.03;64.29;94954.89;1753650;81;21134;-51
2021/03/06 03:09:23;;;;;;;25.50;16.05;;;;;;;-0.04;64.36;94958.71;1761971;81;21119;-52
2021/03/06 03:12:02;;;;;;;23.38;14.55;;;;;;;-0.13;64.60;94956.88;1761931;81;21194;-50
2021/03/06 03:14:49;;;;;;;24.32;13.38;;;;;;;-0.27;64.91;94958.90;1761997;80;21098;-51
2021/03/06 03:17:42;;;;;;;37.60;21.73;;;;;;;-0.29;65.12;94965.81;1762152;81;21547;-52
2021/03/06 03:20:34;;;;;;;27.58;14.07;;;;;;;-0.28;65.21;94966.02;1762193;80;21062;-50
2021/03/06 03:23:19;;;;;;;22.27;12.37;;;;;;;-0.27;64.96;94966.22;1756283;80;21486;-51
2021/03/06 03:25:54;;;;;;;33.18;16.80;;;;;;;-0.31;65.33;94974.88;1873604;75;21800;-52
2021/03/06 03:28:23;;;;;;;36.25;20.27;;;;;;;-0.36;65.22;94977.92;1841597;78;21073;-52
2021/03/06 03:30:52;;;;;;;40.30;23.90;;;;;;;-0.31;65.76;94988.39;1841581;78;21187;-52
2021/03/06 03:33:22;;;;;;;44.93;24.32;;;;;;;-0.26;65.71;94988.07;1841533;77;20967;-51
2021/03/06 03:35:51;;;;;;;40.28;22.62;;;;;;;-0.25;65.77;94993.67;1841586;77;21123;-52
2021/03/06 03:38:19;;;;;;;46.90;24.87;;;;;;;-0.30;65.80;94994.78;1841538;77;21125;-51
2021/03/06 03:40:48;;;;;;;52.30;26.30;;;;;;;-0.37;66.13;94996.64;1841647;78;21564;-50
2021/03/06 03:43:17;;;;;;;41.15;22.32;;;;;;;-0.38;66.42;95005.90;1841581;77;21321;-51
2021/03/06 03:45:45;;;;;;;25.72;15.75;;;;;;;-0.32;66.57;95002.48;1841478;78;21069;-51
2021/03/06 03:48:14;;;;;;;29.07;16.02;;;;;;;-0.28;66.19;94998.45;1841563;78;21081;-51
2021/03/06 03:50:42;;;;;;;43.40;22.75;;;;;;;-0.33;66.16;95006.91;1841533;77;21098;-50
2021/03/06 03:53:12;;;;;;;48.48;25.15;;;;;;;-0.38;66.46;95009.95;1841543;78;21133;-51
2021/03/06 03:55:41;;;;;;;39.67;22.70;;;;;;;-0.46;66.71;95012.36;1841643;78;22259;-52
2021/03/06 03:58:11;;;;;;;36.93;21.70;;;;;;;-0.45;66.63;95016.05;1841482;78;21117;-51
2021/03/06 04:00:39;;;;;;;43.40;23.38;;;;;;;-0.54;66.57;95012.09;1841516;78;21160;-52
2021/03/06 04:03:08;;;;;;;38.38;22.13;;;;;;;-0.64;66.91;95014.09;1809400;78;21133;-52
2021/03/06 04:05:36;;;;;;;30.08;19.90;;;;;;;-0.60;67.26;95017.05;1808451;79;21160;-52
2021/03/06 04:08:05;;;;;;;24.65;14.63;;;;;;;-0.46;67.04;95016.41;1808505;78;21362;-52
2021/03/06 04:10:34;;;;;;;24.07;15.58;;;;;;;-0.39;66.80;95019.97;1808431;79;21089;-52
2021/03/06 04:13:02;;;;;;;30.55;17.70;;;;;;;-0.33;66.89;95010.95;1808509;79;21062;-51
2021/03/06 04:15:31;;;;;;;31.45;18.95;;;;;;;-0.24;66.57;95015.50;1808489;79;21092;-52
2021/03/06 04:18:03;;;;;;;32.90;18.12;;;;;;;-0.29;66.35;95021.22;1808457;78;21148;-51
2021/03/06 04:20:32;;;;;;;37.03;20.52;;;;;;;-0.40;66.49;95028.46;1780267;79;22199;-51
2021/03/06 04:23:02;;;;;;;41.25;25.27;;;;;;;-0.43;66.73;95037.31;1808439;79;21073;-50
2021/03/06 04:25:31;;;;;;;34.43;21.70;;;;;;;-0.40;66.57;95032.52;1812272;79;21109;-52
2021/03/06 04:27:59;;;;;;;35.98;22.02;;;;;;;-0.35;66.42;95034.88;1814205;79;21128;-52
2021/03/06 04:30:27;;;;;;;36.17;21.15;;;;;;;-0.26;66.16;95044.83;1814274;79;21604;-52
2021/03/06 04:32:56;;;;;;;33.48;20.35;;;;;;;-0.27;65.82;95036.48;1814200;79;21444;-52
2021/03/06 04:35:24;;;;;;;33.33;18.70;;;;;;;-0.30;66.00;95040.73;1814109;78;21509;-51
2021/03/06 04:37:54;;;;;;;35.00;19.25;;;;;;;-0.21;65.97;95035.78;1813593;79;21077;-51
2021/03/06 04:40:22;;;;;;;33.45;20.25;;;;;;;-0.12;65.75;95035.48;1813608;79;21076;-52
2021/03/06 04:42:50;;;;;;;46.15;24.15;;;;;;;-0.11;65.48;95043.23;1813732;78;21576;-52
2021/03/06 04:45:19;;;;;;;39.85;20.70;;;;;;;-0.17;65.54;95053.41;1813563;78;21421;-51
2021/03/06 04:47:47;;;;;;;50.48;22.07;;;;;;;-0.16;65.75;95051.69;1813539;78;21199;-51
2021/03/06 04:50:16;;;;;;;35.65;21.20;;;;;;;-0.05;65.43;95051.79;1813691;78;21469;-50
2021/03/06 04:52:44;;;;;;;36.77;22.02;;;;;;;0.00;64.98;95061.11;1813605;79;21085;-51
2021/03/06 04:55:13;;;;;;;47.05;22.77;;;;;;;0.03;64.69;95061.71;1813595;79;21754;-51
2021/03/06 04:57:41;;;;;;;27.27;17.37;;;;;;;-0.01;64.45;95058.20;1813555;78;21422;-52
2021/03/06 05:00:11;;;;;;;39.55;20.72;;;;;;;-0.06;64.58;95066.46;1813627;78;21510;-52
2021/03/06 05:02:39;;;;;;;47.78;22.25;;;;;;;-0.16;64.76;95068.47;1813615;77;21517;-52
2021/03/06 05:05:09;;;;;;;30.72;19.98;;;;;;;-0.22;64.64;95069.37;1813637;79;21547;-52
2021/03/06 05:07:38;;;;;;;31.55;17.07;;;;;;;-0.29;64.67;95073.92;1813693;79;21513;-52
2021/03/06 05:10:08;;;;;;;27.25;17.15;;;;;;;-0.38;64.30;95073.45;1813526;79;21407;-53
2021/03/06 05:12:36;;;;;;;43.30;24.27;;;;;;;-0.57;64.50;95073.62;1813522;79;21069;-51
2021/03/06 05:15:06;;;;;;;42.58;25.23;;;;;;;-0.69;64.92;95076.00;1813578;78;21065;-51
2021/03/06 05:17:35;;;;;;;36.30;21.20;;;;;;;-0.63;65.10;95079.16;1813618;78;21085;-51
2021/03/06 05:20:06;;;;;;;38.98;22.62;;;;;;;-0.73;64.18;95079.23;1813596;79;21069;-52
2021/03/06 05:22:34;;;;;;;38.45;22.93;;;;;;;-0.93;64.33;95078.38;1813528;78;21509;-52
2021/03/06 05:25:03;;;;;;;45.83;28.47;;;;;;;-0.99;64.50;95086.02;1811359;78;21084;-52
2021/03/06 05:27:32;;;;;;;41.45;26.50;;;;;;;-1.01;64.76;95086.95;1807870;78;21067;-51
2021/03/06 05:30:01;;;;;;;35.13;21.55;;;;;;;-0.99;64.55;95092.77;1807875;78;21101;-51
2021/03/06 05:32:31;;;;;;;35.65;21.62;;;;;;;-0.99;64.18;95101.45;1807928;78;21045;-51
2021/03/06 05:35:00;;;;;;;35.13;21.15;;;;;;;-1.04;64.29;95111.20;1807840;79;21199;-52
2021/03/06 05:37:28;;;;;;;31.23;18.92;;;;;;;-1.05;64.38;95104.23;1807773;78;21231;-51
2021/03/06 05:39:57;;;;;;;28.17;18.10;;;;;;;-1.03;64.28;95100.60;1807855;78;21010;-51
2021/03/06 05:42:27;;;;;;;31.50;19.73;;;;;;;-1.06;64.23;95102.69;1807835;79;21061;-54
2021/03/06 05:44:57;;;;;;;27.58;17.23;;;;;;;-1.09;64.31;95108.81;1807819;78;21470;-52
2021/03/06 05:47:26;;;;;;;28.25;15.23;;;;;;;-1.14;64.21;95109.14;1807784;79;21263;-51
2021/03/06 05:49:55;;;;;;;30.00;18.55;;;;;;;-1.25;63.79;95116.29;1807800;79;22209;-52
2021/03/06 05:52:23;;;;;;;31.85;18.35;;;;;;;-1.39;63.94;95120.12;1807825;78;21042;-52
2021/03/06 05:54:52;;;;;;;30.37;18.52;;;;;;;-1.50;64.19;95120.54;1807858;78;21037;-53
2021/03/06 05:57:20;;;;;;;38.10;22.70;;;;;;;-1.51;64.30;95121.09;1807946;78;21556;-52
2021/03/06 05:59:49;;;;;;;41.95;24.92;;;;;;;-1.40;64.67;95128.80;1807853;79;21391;-52
2021/03/06 06:02:18;;;;;;;58.23;33.88;;;;;;;-1.26;64.69;95132.28;1807777;78;21156;-52
2021/03/06 06:04:46;;;;;;;70.72;38.80;;;;;;;-1.20;65.00;95138.91;1807891;79;21597;-52
2021/03/06 06:07:18;;;;;;;168.35;84.65;;;;;;;-1.17;65.20;95149.01;1807831;78;21065;-51
2021/03/06 06:09:46;;;;;;;80.77;45.90;;;;;;;-1.23;65.43;95151.23;1807958;79;21067;-52
2021/03/06 06:12:15;;;;;;;77.62;44.83;;;;;;;-1.28;65.65;95149.41;1807807;78;21193;-52
2021/03/06 06:14:45;;;;;;;78.20;45.38;;;;;;;-1.29;65.75;95155.35;1807754;79;21097;-53
2021/03/06 06:17:13;;;;;;;68.12;40.50;;;;;;;-1.16;65.72;95161.36;1807897;79;21514;-52
2021/03/06 06:19:41;;;;;;;82.97;46.28;;;;;;;-1.00;65.03;95165.45;1807801;79;21057;-53
2021/03/06 06:22:23;;;;;;;86.82;47.85;;;;;;;-0.90;64.73;95167.54;1807930;79;21133;-52
2021/03/06 06:24:52;;;;;;;78.97;44.67;;;;;;;-0.71;64.81;95170.13;1807673;79;22279;-52
2021/03/06 06:27:33;;;;;;;79.03;51.00;;;;;;;-0.36;64.70;95175.20;1807745;78;21184;-52
2021/03/06 06:30:13;;;;;;;109.17;61.53;;;;;;;0.00;63.91;95177.38;1807808;78;21087;-53
2021/03/06 06:32:44;;;;;;;97.35;55.90;;;;;;;0.25;63.04;95180.36;1807794;78;21054;-53
2021/03/06 06:35:15;;;;;;;76.97;43.85;;;;;;;0.40;62.22;95185.53;1808180;79;21469;-52
2021/03/06 06:38:02;;;;;;;72.90;41.88;;;;;;;0.55;61.71;95181.81;1807808;79;21336;-51
2021/03/06 06:40:33;;;;;;;88.67;47.27;;;;;;;0.73;61.18;95186.81;1807727;78;21121;-53
2021/03/06 06:43:01;;;;;;;81.05;48.38;;;;;;;0.84;60.87;95184.98;1807803;79;21121;-53
2021/03/06 06:45:36;;;;;;;76.05;43.08;;;;;;;1.10;60.77;95190.20;1807709;79;21152;-53
2021/03/06 06:48:11;;;;;;;82.67;45.98;;;;;;;1.49;59.98;95197.25;1807842;78;21426;-52
2021/03/06 06:50:40;;;;;;;71.60;46.13;;;;;;;1.75;59.15;95192.37;1807804;79;21188;-53
2021/03/06 06:53:26;;;;;;;62.38;39.90;;;;;;;2.04;58.41;95200.81;1807787;79;21573;-51
2021/03/06 06:55:54;;;;;;;63.38;36.95;;;;;;;2.13;57.56;95204.73;1807884;79;21462;-53
2021/03/06 06:58:34;;;;;;;58.83;36.25;;;;;;;2.10;56.87;95210.16;1803581;78;21491;-51
2021/03/06 07:01:24;;;;;;;50.65;31.23;;;;;;;1.93;56.60;95208.16;1807785;78;21439;-52
2021/03/06 07:04:01;;;;;;;55.80;35.70;;;;;;;1.90;56.64;95208.32;1807712;78;22061;-52
2021/03/06 07:06:37;;;;;;;58.65;35.08;;;;;;;2.00;56.27;95205.45;1873572;76;22643;-51
2021/03/06 07:09:10;;;;;;;42.60;27.75;;;;;;;2.19;56.01;95206.50;1841556;77;21505;-51
2021/03/06 07:11:39;;;;;;;38.90;22.70;;;;;;;2.51;55.21;95211.45;1841723;78;21549;-52
2021/03/06 07:14:08;;;;;;;42.53;25.55;;;;;;;2.68;54.22;95209.36;1841589;77;21108;-50
2021/03/06 07:17:00;;;;;;;36.88;22.98;;;;;;;3.03;53.29;95216.20;1841506;77;21644;-52
2021/03/06 07:19:31;;;;;;;36.53;19.33;;;;;;;3.30;52.99;95221.44;1841770;78;21156;-52
2021/03/06 07:22:00;;;;;;;20.17;12.95;;;;;;;3.67;52.51;95219.25;1841531;78;21006;-52
2021/03/06 07:24:28;;;;;;;23.35;14.03;;;;;;;4.07;50.57;95218.76;1841432;77;23419;-52
2021/03/06 07:26:57;;;;;;;20.95;12.53;;;;;;;4.09;49.71;95212.94;1841516;77;21502;-52
2021/03/06 07:29:27;;;;;;;24.02;13.32;;;;;;;3.93;48.99;95228.92;1841506;78;21506;-54
2021/03/06 07:31:57;;;;;;;22.90;12.58;;;;;;;3.87;48.05;95224.45;1841478;77;21062;-54
2021/03/06 07:34:28;;;;;;;20.57;13.93;;;;;;;3.87;48.17;95229.14;1841624;78;21499;-55
2021/03/06 07:37:06;;;;;;;24.18;12.70;;;;;;;3.91;48.01;95231.27;1841544;77;21126;-54
2021/03/06 07:39:39;;;;;;;16.02;11.22;;;;;;;4.22;47.48;95227.07;1841449;78;21139;-53
2021/03/06 07:42:48;;;;;;;17.20;11.73;;;;;;;4.40;46.67;95227.02;1841542;77;21069;-54
2021/03/06 07:45:23;;;;;;;12.40;9.80;;;;;;;4.40;45.90;95223.70;1735171;81;21080;-54
2021/03/06 07:47:59;;;;;;;13.30;9.93;;;;;;;4.18;45.86;95218.15;1833295;77;21102;-54
2021/03/06 07:50:30;;;;;;;14.65;10.18;;;;;;;4.15;46.02;95222.23;1841624;78;22014;-53
2021/03/06 07:52:58;;;;;;;16.73;10.18;;;;;;;4.13;45.17;95223.22;1841473;78;21081;-54
2021/03/06 07:55:29;;;;;;;21.12;13.93;;;;;;;4.00;45.68;95226.96;1811401;78;21485;-53
2021/03/06 07:58:16;;;;;;;26.35;17.00;;;;;;;3.88;45.67;95227.37;1841732;77;21157;-54
2021/03/06 08:00:54;;;;;;;22.40;15.30;;;;;;;3.68;46.58;95222.16;1841601;78;21454;-54
2021/03/06 08:03:34;;;;;;;26.77;16.70;;;;;;;3.49;47.62;95225.30;1841505;77;21186;-54
2021/03/06 08:06:18;;;;;;;20.32;13.98;;;;;;;3.33;48.23;95232.31;1841191;77;21145;-54
2021/03/06 08:08:55;;;;;;;20.65;13.20;;;;;;;3.39;48.75;95240.86;1841555;77;21070;-53
2021/03/06 08:11:38;;;;;;;15.70;11.88;;;;;;;3.41;48.37;95246.69;1841416;77;21046;-52
2021/03/06 08:14:27;;;;;;;14.55;10.38;;;;;;;3.30;47.59;95256.77;1841501;78;21065;-52
2021/03/06 08:16:56;;;;;;;12.03;8.43;;;;;;;3.17;47.72;95246.88;1841135;77;22414;-52
2021/03/06 08:19:26;;;;;;;10.30;8.20;;;;;;;2.92;47.28;95248.00;1840744;77;21073;-51
2021/03/06 08:21:56;;;;;;;14.00;9.65;;;;;;;2.66;47.20;95246.39;1840863;78;20939;-51
2021/03/06 08:24:27;;;;;;;23.05;13.25;;;;;;;2.58;47.76;95250.84;1840912;78;21470;-52
2021/03/06 08:27:09;;;;;;;17.20;12.53;;;;;;;2.60;48.54;95252.02;1840878;77;21050;-54
2021/03/06 08:29:41;;;;;;;13.78;11.12;;;;;;;2.70;48.79;95251.84;1839772;77;22245;-52
2021/03/06 08:32:27;;;;;;;18.07;11.12;;;;;;;2.92;48.58;95256.16;1840776;78;21160;-51
2021/03/06 08:35:17;;;;;;;22.40;14.63;;;;;;;3.12;48.74;95260.85;1838144;77;21042;-51
2021/03/06 08:37:46;;;;;;;16.48;12.20;;;;;;;3.37;47.55;95267.64;1840846;77;21038;-52
2021/03/06 08:40:23;;;;;;;18.30;13.60;;;;;;;3.38;47.00;95269.22;1840837;77;21080;-52
2021/03/06 08:42:54;;;;;;;18.87;13.53;;;;;;;3.41;47.34;95273.88;1840899;77;21356;-52
2021/03/06 08:45:29;;;;;;;34.67;25.60;;;;;;;3.53;47.12;95279.11;1840735;77;21121;-53
2021/03/06 08:48:01;;;;;;;21.95;16.35;;;;;;;3.55;46.04;95282.20;1840855;77;21062;-54
2021/03/06 08:50:35;;;;;;;15.35;11.40;;;;;;;3.60;44.75;95279.12;1840781;77;20998;-53
2021/03/06 08:53:14;;;;;;;30.92;21.40;;;;;;;3.59;44.82;95284.37;1840774;77;21105;-53
2021/03/06 08:55:45;;;;;;;48.13;32.23;;;;;;;3.61;45.19;95288.83;1840916;78;22131;-53
2021/03/06 08:58:18;;;;;;;33.08;22.62;;;;;;;3.66;44.18;95289.03;1840720;77;21072;-55
2021/03/06 09:00:52;;;;;;;113.20;90.87;;;;;;;3.55;44.98;95294.45;1840798;78;21046;-52
2021/03/06 09:03:25;;;;;;;17.02;13.70;;;;;;;3.35;44.41;95297.16;1840865;78;21554;-52
2021/03/06 09:05:56;;;;;;;;;;;;;;;3.34;43.61;95292.89;1839682;76;21056;-56
2021/03/06 09:08:27;;;;;;;14.93;11.45;;;;;;;3.51;44.46;95290.95;1816898;77;20493;-53
2021/03/06 09:10:58;;;;;;;27.82;16.67;;;;;;;3.87;44.81;95292.48;1832564;77;21084;-53
2021/03/06 09:13:31;;;;;;;15.72;10.53;;;;;;;4.29;43.46;95291.06;1832576;77;21064;-53
2021/03/06 09:16:05;;;;;;;14.93;11.28;;;;;;;4.40;41.99;95297.23;1832503;77;21176;-52
2021/03/06 09:18:35;;;;;;;26.90;21.02;;;;;;;4.28;41.49;95292.80;1832609;77;21068;-53
2021/03/06 09:21:13;;;;;;;14.83;10.00;;;;;;;4.17;41.43;95305.66;1832695;78;22101;-52
2021/03/06 09:23:44;;;;;;;10.23;8.90;;;;;;;4.13;41.20;95312.48;1816636;78;21117;-51
2021/03/06 09:26:20;;;;;;;11.22;8.78;;;;;;;3.95;41.28;95307.66;1799844;79;21140;-54
2021/03/06 09:28:50;;;;;;;9.60;6.03;;;;;;;3.76;40.82;95302.62;1822334;77;21530;-53
2021/03/06 09:31:26;;;;;;;12.40;8.13;;;;;;;3.79;42.53;95314.66;1820999;78;21474;-52
2021/03/06 09:33:55;;;;;;;10.95;7.15;;;;;;;3.92;41.72;95322.05;1809788;77;21352;-53
2021/03/06 09:36:30;;;;;;;8.28;5.87;;;;;;;4.02;40.93;95317.16;1813539;78;21069;-51
2021/03/06 09:39:01;;;;;;;8.73;6.58;;;;;;;3.99;40.41;95315.23;1799894;79;21611;-51
2021/03/06 09:41:34;;;;;;;17.73;7.22;;;;;;;3.87;39.96;95318.95;1820923;77;21600;-51
2021/03/06 09:44:03;;;;;;;5.62;5.03;;;;;;;3.90;40.24;95324.36;1815204;78;21116;-54
2021/03/06 09:46:34;;;;;;;7.95;5.53;;;;;;;3.99;40.37;95321.24;1832489;78;21292;-53
2021/03/06 09:49:07;;;;;;;9.48;7.28;;;;;;;4.19;39.28;95323.16;1832473;78;20982;-52
2021/03/06 09:51:51;;;;;;;5.67;5.17;;;;;;;4.30;40.23;95333.46;1823976;78;21121;-52
2021/03/06 09:54:25;;;;;;;8.43;6.00;;;;;;;4.52;36.51;95333.59;1799969;79;21180;-51
2021/03/06 09:56:57;;;;;;;5.85;4.92;;;;;;;4.66;36.75;95341.73;1799514;78;21140;-52
2021/03/06 09:59:27;;;;;;;5.90;5.33;;;;;;;4.79;36.80;95333.28;1799784;78;21356;-54
2021/03/06 10:02:08;;;;;;;6.12;5.53;;;;;;;5.41;36.37;95339.00;1799637;78;21085;-53
2021/03/06 10:04:37;;;;;;;5.30;4.80;;;;;;;6.16;35.25;95342.75;1816443;78;21049;-53
2021/03/06 10:07:10;;;;;;;5.55;5.05;;;;;;;6.85;35.70;95339.11;1838868;77;21070;-53
2021/03/06 10:09:38;;;;;;;;;;;;;;;7.12;33.79;95345.59;1843304;77;21640;-52
2021/03/06 10:15:12;;;;;;;10.05;8.43;;;;;;;6.86;34.41;95348.86;1885406;75;22450;-52
2021/03/06 10:17:40;;;;;;;11.53;8.20;;;;;;;6.68;34.14;95355.12;1812318;77;21167;-51
2021/03/06 10:20:10;;;;;;;7.40;6.70;;;;;;;6.41;34.60;95356.95;1833405;77;21404;-51
2021/03/06 10:22:46;;;;;;;8.85;5.62;;;;;;;6.26;33.82;95365.09;1849578;77;20990;-53
2021/03/06 10:25:27;;;;;;;15.45;11.70;;;;;;;6.38;33.10;95356.39;1840492;77;21129;-53
2021/03/06 10:27:55;;;;;;;14.30;13.00;;;;;;;6.52;33.94;95363.09;1845149;77;21098;-52
2021/03/06 10:30:32;;;;;;;5.62;4.90;;;;;;;6.73;33.79;95360.14;1849759;77;21579;-52
2021/03/06 10:33:01;;;;;;;6.90;5.70;;;;;;;6.65;33.07;95364.91;1849676;77;22113;-53
2021/03/06 10:35:42;;;;;;;7.22;5.53;;;;;;;6.61;33.13;95366.11;1849637;77;21080;-52
2021/03/06 10:38:21;;;;;;;7.78;5.72;;;;;;;6.58;33.55;95364.20;1846141;77;21469;-53
2021/03/06 10:40:55;;;;;;;17.32;13.48;;;;;;;6.27;33.53;95366.06;1848131;77;21047;-53
2021/03/06 10:43:39;;;;;;;7.25;6.45;;;;;;;5.80;34.04;95364.70;1850062;77;21567;-52
2021/03/06 10:46:19;;;;;;;5.55;4.90;;;;;;;5.56;34.29;95368.33;1845017;77;21410;-53
2021/03/06 10:49:01;;;;;;;5.95;4.17;;;;;;;5.56;33.75;95365.59;1842544;77;21086;-52
2021/03/06 10:51:53;;;;;;;5.42;4.53;;;;;;;5.60;33.50;95356.82;1842554;77;21056;-52
2021/03/06 10:54:20;;;;;;;6.85;6.10;;;;;;;5.78;33.06;95363.73;1849419;77;21032;-51
2021/03/06 10:57:07;;;;;;;7.67;6.87;;;;;;;5.80;33.53;95360.61;1846836;77;21481;-52
2021/03/06 10:59:36;;;;;;;7.00;6.03;;;;;;;5.78;32.65;95364.30;1840818;77;21272;-53
2021/03/06 11:02:05;;;;;;;7.22;6.45;;;;;;;5.54;33.07;95359.19;1828873;77;21559;-53
2021/03/06 11:04:36;;;;;;;8.83;6.80;;;;;;;5.43;33.52;95354.38;1816420;79;21079;-51
2021/03/06 11:07:07;;;;;;;11.03;8.95;;;;;;;5.33;33.80;95355.81;1816366;79;21118;-52
2021/03/06 11:09:38;;;;;;;8.58;6.42;;;;;;;5.39;33.68;95353.63;1791315;77;21504;-51
2021/03/06 11:12:19;;;;;;;13.15;9.18;;;;;;;5.38;33.49;95351.32;1807560;77;21395;-49
2021/03/06 11:15:12;;;;;;;6.05;5.45;;;;;;;5.61;33.78;95340.64;1807479;77;21600;-52
2021/03/06 11:17:42;;;;;;;21.45;15.88;;;;;;;6.39;33.03;95340.97;1805006;78;21487;-51
2021/03/06 11:20:13;;;;;;;10.30;8.88;;;;;;;7.16;31.60;95339.47;1775268;80;21069;-52
2021/03/06 11:22:42;;;;;;;5.30;4.80;;;;;;;7.35;31.71;95346.27;1743144;80;21182;-52
2021/03/06 11:25:11;;;;;;;4.75;3.87;;;;;;;7.33;32.54;95343.18;1774900;80;22201;-51
2021/03/06 11:27:53;;;;;;;5.22;4.55;;;;;;;7.07;33.43;95337.05;1761686;80;21082;-52
2021/03/06 11:30:39;;;;;;;5.28;4.55;;;;;;;6.69;33.58;95347.86;1774613;80;21160;-55
2021/03/06 11:33:12;;;;;;;4.97;4.50;;;;;;;6.37;34.05;95346.05;1770614;79;21073;-51
2021/03/06 11:35:42;;;;;;;5.97;5.12;;;;;;;6.13;34.10;95347.66;1773687;79;21196;-52
2021/03/06 11:38:11;;;;;;;8.10;5.97;;;;;;;5.92;34.56;95346.45;1759840;80;22262;-53
2021/03/06 11:40:43;;;;;;;5.10;4.60;;;;;;;5.93;35.31;95342.57;1762749;79;21478;-52
2021/03/06 11:43:12;;;;;;;5.37;4.87;;;;;;;6.33;34.75;95336.34;1770031;80;21176;-51
2021/03/06 11:45:41;;;;;;;6.55;4.90;;;;;;;6.66;35.37;95338.35;1736097;80;21141;-53
2021/03/06 11:48:10;;;;;;;10.03;7.25;;;;;;;6.65;33.99;95335.41;1765544;79;21081;-53
2021/03/06 11:50:43;;;;;;;7.28;5.45;;;;;;;6.31;34.10;95332.64;1729388;81;22280;-51
2021/03/06 11:53:12;;;;;;;7.22;6.30;;;;;;;6.13;34.28;95343.56;1735883;81;21143;-51
2021/03/06 11:55:41;;;;;;;8.45;6.08;;;;;;;6.45;34.94;95331.72;1723105;80;21138;-51